Time;durP1;ratioP1;P1;durP2;ratioP2;P2;SDS_P1;SDS_P2;PMS_P1;PMS_P2;Temp;Humidity;BMP_temperature;BMP_pressure;BME280_temperature;BME280_humidity;BME280_pressure;Samples;Min_cycle;Max_cycle;Signal;HPM_P1;HPM_P2
2024/01/17 00:02:05;;;;;;;0.50;0.50;;;;;;;;;;6255937;28;20472;-85
2024/01/17 00:05:06;;;;;;;0.60;0.60;;;;;;;;;;6238322;28;20026;-85
2024/01/17 00:08:06;;;;;;;0.50;0.50;;;;;;;;;;6261055;28;20029;-86
2024/01/17 00:11:07;;;;;;;0.50;0.50;;;;;;;;;;6258283;28;20026;-85
2024/01/17 00:14:07;;;;;;;0.57;0.57;;;;;;;;;;6251608;28;20028;-85
2024/01/17 00:17:08;;;;;;;0.50;0.50;;;;;;;;;;6251080;28;20085;-85
2024/01/17 00:20:08;;;;;;;0.50;0.50;;;;;;;;;;6262343;28;20132;-84
2024/01/17 00:23:09;;;;;;;0.50;0.50;;;;;;;;;;6253720;28;20032;-85
2024/01/17 00:26:09;;;;;;;0.60;0.60;;;;;;;;;;6254956;28;20063;-85
2024/01/17 00:29:10;;;;;;;0.50;0.50;;;;;;;;;;6250912;28;20499;-84
2024/01/17 00:32:10;;;;;;;0.47;0.47;;;;;;;;;;6248564;28;20496;-84
2024/01/17 00:35:10;;;;;;;0.50;0.50;;;;;;;;;;6237913;28;20059;-86
2024/01/17 00:38:10;;;;;;;0.53;0.53;;;;;;;;;;6253307;28;20112;-84
2024/01/17 00:41:11;;;;;;;0.60;0.60;;;;;;;;;;6230043;28;20495;-84
2024/01/17 00:44:16;;;;;;;0.80;0.80;;;;;;;;;;6221437;28;20164;-84
2024/01/17 00:47:17;;;;;;;0.52;0.52;;;;;;;;;;6225686;28;20028;-84
2024/01/17 00:50:18;;;;;;;0.50;0.50;;;;;;;;;;6240439;28;20029;-83
2024/01/17 00:53:18;;;;;;;0.50;0.50;;;;;;;;;;6237135;28;20033;-84
2024/01/17 00:56:18;;;;;;;0.60;0.60;;;;;;;;;;6241088;28;20056;-84
2024/01/17 00:59:19;;;;;;;0.53;0.53;;;;;;;;;;6242421;28;20025;-84
2024/01/17 01:02:19;;;;;;;0.70;0.70;;;;;;;;;;6242418;28;20025;-86
2024/01/17 01:05:19;;;;;;;0.60;0.60;;;;;;;;;;6242581;28;20035;-84
2024/01/17 01:08:19;;;;;;;0.50;0.50;;;;;;;;;;6218462;28;20025;-86
2024/01/17 01:11:20;;;;;;;0.60;0.60;;;;;;;;;;6232064;28;20464;-84
2024/01/17 01:14:20;;;;;;;0.60;0.60;;;;;;;;;;6236742;28;20112;-84
2024/01/17 01:17:20;;;;;;;0.57;0.57;;;;;;;;;;6241510;28;20120;-85
2024/01/17 01:20:20;;;;;;;0.80;0.80;;;;;;;;;;6218326;28;20030;-85
2024/01/17 01:23:24;;;;;;;0.63;0.63;;;;;;;;;;6237924;28;20032;-85
2024/01/17 01:26:24;;;;;;;0.52;0.52;;;;;;;;;;6242570;28;20033;-85
2024/01/17 01:29:24;;;;;;;0.50;0.50;;;;;;;;;;6223737;28;20076;-86
2024/01/17 01:32:25;;;;;;;0.60;0.60;;;;;;;;;;6239601;28;20037;-85
2024/01/17 01:35:25;;;;;;;0.60;0.60;;;;;;;;;;6228863;28;20020;-85
2024/01/17 01:38:25;;;;;;;0.67;0.67;;;;;;;;;;6230535;28;20032;-85
2024/01/17 01:41:25;;;;;;;0.60;0.60;;;;;;;;;;6237122;28;20053;-87
2024/01/17 01:44:25;;;;;;;0.57;0.57;;;;;;;;;;6229924;28;20060;-87
2024/01/17 01:47:26;;;;;;;0.70;0.70;;;;;;;;;;6231410;28;20025;-85
2024/01/17 01:50:27;;;;;;;0.70;0.70;;;;;;;;;;6226456;28;20399;-87
2024/01/17 01:53:28;;;;;;;0.45;0.45;;;;;;;;;;6248861;28;20117;-87
2024/01/17 01:56:30;;;;;;;0.73;0.73;;;;;;;;;;6225871;28;20093;-87
2024/01/17 01:59:31;;;;;;;0.50;0.50;;;;;;;;;;6229797;28;20018;-87
2024/01/17 02:02:32;;;;;;;0.60;0.60;;;;;;;;;;6241469;28;20033;-87
2024/01/17 02:05:32;;;;;;;0.57;0.57;;;;;;;;;;6220876;28;20045;-81
2024/01/17 02:08:33;;;;;;;0.73;0.73;;;;;;;;;;6232630;28;20029;-81
2024/01/17 02:11:35;;;;;;;0.63;0.63;;;;;;;;;;6225199;28;20021;-80
2024/01/17 02:14:39;;;;;;;0.65;0.65;;;;;;;;;;6248766;23;20412;-95
2024/01/17 02:17:40;;;;;;;0.60;0.60;;;;;;;;;;6244057;28;20036;-96
2024/01/17 02:20:40;;;;;;;0.70;0.70;;;;;;;;;;6246007;28;20026;-95
2024/01/17 02:23:43;;;;;;;0.50;0.50;;;;;;;;;;6250821;28;20029;-95
2024/01/17 02:26:44;;;;;;;0.60;0.60;;;;;;;;;;6253080;28;20032;-95
2024/01/17 02:29:46;;;;;;;0.50;0.50;;;;;;;;;;6258355;28;20025;-95
2024/01/17 02:32:48;;;;;;;0.60;0.60;;;;;;;;;;6235523;28;20033;-95
2024/01/17 02:35:49;;;;;;;0.60;0.60;;;;;;;;;;6243007;28;20029;-95
2024/01/17 02:38:49;;;;;;;0.60;0.60;;;;;;;;;;6262395;28;20511;-95
2024/01/17 02:41:49;;;;;;;0.60;0.60;;;;;;;;;;6255706;28;20091;-95
2024/01/17 02:44:50;;;;;;;0.60;0.60;;;;;;;;;;6256607;28;20108;-94
2024/01/17 02:47:51;;;;;;;0.50;0.50;;;;;;;;;;6257378;28;20109;-95
2024/01/17 02:50:51;;;;;;;0.50;0.50;;;;;;;;;;6259844;28;20047;-95
2024/01/17 02:53:52;;;;;;;0.57;0.57;;;;;;;;;;6259287;28;20049;-95
2024/01/17 02:56:52;;;;;;;0.50;0.50;;;;;;;;;;6264569;28;20030;-95
2024/01/17 02:59:53;;;;;;;0.70;0.70;;;;;;;;;;6275083;28;20082;-95
2024/01/17 03:02:56;;;;;;;0.83;0.83;;;;;;;;;;6256229;28;20018;-95
2024/01/17 03:05:57;;;;;;;0.60;0.60;;;;;;;;;;6263504;28;20073;-95
2024/01/17 03:09:03;;;;;;;0.63;0.63;;;;;;;;;;6276862;28;20050;-95
2024/01/17 03:12:04;;;;;;;0.65;0.65;;;;;;;;;;6279188;28;20059;-94
2024/01/17 03:15:07;;;;;;;0.70;0.70;;;;;;;;;;6277313;28;20113;-94
2024/01/17 03:18:17;;;;;;;0.70;0.70;;;;;;;;;;6276853;28;20028;-95
2024/01/17 03:21:18;;;;;;;0.68;0.68;;;;;;;;;;6247390;28;20022;-83
2024/01/17 03:24:19;;;;;;;0.60;0.60;;;;;;;;;;6247343;28;20035;-84
2024/01/17 03:27:19;;;;;;;0.80;0.80;;;;;;;;;;6247120;28;20490;-83
2024/01/17 03:30:19;;;;;;;0.60;0.60;;;;;;;;;;6246349;28;20815;-83
2024/01/17 03:33:20;;;;;;;0.70;0.70;;;;;;;;;;6234732;28;20037;-83
2024/01/17 03:36:20;;;;;;;0.70;0.70;;;;;;;;;;6243314;28;20339;-83
2024/01/17 03:39:21;;;;;;;0.70;0.70;;;;;;;;;;6260760;28;20041;-83
2024/01/17 03:42:22;;;;;;;0.68;0.68;;;;;;;;;;6245969;28;20043;-82
2024/01/17 03:45:23;;;;;;;0.80;0.80;;;;;;;;;;6245884;28;20018;-83
2024/01/17 03:48:23;;;;;;;0.80;0.80;;;;;;;;;;6245665;28;20037;-83
2024/01/17 03:51:24;;;;;;;0.70;0.70;;;;;;;;;;6247217;28;20020;-83
2024/01/17 03:54:24;;;;;;;0.50;0.50;;;;;;;;;;6246369;28;20143;-83
2024/01/17 03:57:24;;;;;;;0.77;0.77;;;;;;;;;;6246157;28;20017;-83
2024/01/17 04:00:24;;;;;;;0.50;0.50;;;;;;;;;;6246145;28;20079;-83
2024/01/17 04:03:24;;;;;;;0.70;0.70;;;;;;;;;;6244667;28;20036;-83
2024/01/17 04:06:27;;;;;;;0.70;0.70;;;;;;;;;;6243849;28;20029;-83
2024/01/17 04:09:30;;;;;;;0.60;0.60;;;;;;;;;;6234181;28;20037;-83
2024/01/17 04:12:30;;;;;;;0.77;0.77;;;;;;;;;;6244701;28;20029;-83
2024/01/17 04:15:31;;;;;;;0.77;0.77;;;;;;;;;;6245306;28;20485;-83
2024/01/17 04:18:31;;;;;;;0.60;0.60;;;;;;;;;;6247250;28;20036;-83
2024/01/17 04:21:31;;;;;;;0.80;0.80;;;;;;;;;;6250164;28;20036;-83
2024/01/17 04:24:39;;;;;;;0.70;0.70;;;;;;;;;;6248852;28;20425;-83
2024/01/17 04:27:39;;;;;;;0.80;0.80;;;;;;;;;;6242479;28;20049;-83
2024/01/17 04:30:40;;;;;;;0.83;0.83;;;;;;;;;;6253449;28;20043;-93
2024/01/17 04:33:44;;;;;;;0.80;0.80;;;;;;;;;;6278058;28;20048;-94
2024/01/17 04:36:45;;;;;;;0.70;0.70;;;;;;;;;;6280547;28;20026;-94
2024/01/17 04:39:45;;;;;;;0.80;0.80;;;;;;;;;;6281041;28;20045;-94
2024/01/17 04:42:48;;;;;;;0.73;0.73;;;;;;;;;;6281292;28;20025;-94
2024/01/17 04:45:51;;;;;;;0.80;0.80;;;;;;;;;;6279095;28;20093;-93
2024/01/17 04:49:00;;;;;;;0.65;0.65;;;;;;;;;;6279385;28;20005;-94
2024/01/17 04:52:04;;;;;;;0.70;0.70;;;;;;;;;;6280424;28;20052;-94
2024/01/17 04:55:09;;;;;;;0.50;0.50;;;;;;;;;;6293898;28;20020;-94
2024/01/17 04:58:12;;;;;;;0.60;0.60;;;;;;;;;;6279986;28;20035;-94
2024/01/17 05:01:12;;;;;;;0.60;0.60;;;;;;;;;;6278999;28;20017;-94
2024/01/17 05:04:15;;;;;;;1.00;1.00;;;;;;;;;;6278513;28;20032;-94
2024/01/17 05:07:20;;;;;;;0.80;0.80;;;;;;;;;;6278717;28;20240;-94
2024/01/17 05:10:23;;;;;;;0.80;0.80;;;;;;;;;;6268661;28;20018;-94
2024/01/17 05:13:29;;;;;;;0.63;0.63;;;;;;;;;;6258072;28;20044;-94
2024/01/17 05:16:34;;;;;;;0.80;0.80;;;;;;;;;;6278229;28;20028;-94
2024/01/17 05:19:43;;;;;;;0.60;0.60;;;;;;;;;;6272972;28;20018;-93
2024/01/17 05:22:49;;;;;;;0.90;0.90;;;;;;;;;;6267927;28;20021;-94
2024/01/17 05:25:50;;;;;;;0.57;0.57;;;;;;;;;;6260862;28;20030;-93
2024/01/17 05:28:51;;;;;;;0.90;0.90;;;;;;;;;;6262903;28;20143;-94
2024/01/17 05:31:51;;;;;;;0.90;0.90;;;;;;;;;;6254938;28;20091;-95
2024/01/17 05:34:57;;;;;;;0.73;0.73;;;;;;;;;;6266951;28;20010;-95
2024/01/17 05:38:09;;;;;;;0.70;0.70;;;;;;;;;;6278305;28;20036;-95
2024/01/17 05:41:09;;;;;;;0.50;0.50;;;;;;;;;;6268358;28;20034;-95
2024/01/17 05:44:20;;;;;;;0.50;0.50;;;;;;;;;;6274671;28;20036;-95
2024/01/17 05:47:24;;;;;;;0.70;0.70;;;;;;;;;;6269453;28;20037;-94
2024/01/17 05:50:25;;;;;;;0.60;0.60;;;;;;;;;;6245031;28;20036;-92
2024/01/17 05:53:25;;;;;;;0.60;0.60;;;;;;;;;;6255367;28;20025;-93
2024/01/17 05:56:26;;;;;;;0.60;0.60;;;;;;;;;;6254544;28;20048;-92
2024/01/17 05:59:26;;;;;;;0.70;0.70;;;;;;;;;;6254905;28;20021;-94
2024/01/17 06:02:29;;;;;;;0.50;0.50;;;;;;;;;;6254001;28;20036;-94
2024/01/17 06:05:29;;;;;;;0.60;0.60;;;;;;;;;;6258518;28;20043;-94
2024/01/17 06:08:32;;;;;;;0.50;0.50;;;;;;;;;;6255219;28;20033;-95
2024/01/17 06:11:32;;;;;;;0.80;0.80;;;;;;;;;;6242699;28;20095;-92
2024/01/17 06:14:33;;;;;;;0.70;0.70;;;;;;;;;;6233005;28;20037;-91
2024/01/17 06:17:33;;;;;;;0.70;0.70;;;;;;;;;;6233304;28;20040;-93
2024/01/17 06:20:35;;;;;;;0.60;0.60;;;;;;;;;;6235283;28;20030;-93
2024/01/17 06:23:37;;;;;;;0.60;0.60;;;;;;;;;;6244423;28;20087;-94
2024/01/17 06:26:37;;;;;;;0.60;0.60;;;;;;;;;;6245085;28;20053;-95
2024/01/17 06:29:41;;;;;;;0.60;0.60;;;;;;;;;;6240662;28;20020;-93
2024/01/17 06:32:41;;;;;;;0.70;0.70;;;;;;;;;;6246755;28;20059;-93
2024/01/17 06:35:48;;;;;;;0.70;0.70;;;;;;;;;;6248380;28;20017;-94
2024/01/17 06:38:48;;;;;;;0.50;0.50;;;;;;;;;;6236361;28;20025;-95
2024/01/17 06:41:48;;;;;;;0.67;0.67;;;;;;;;;;6236999;28;20032;-95
2024/01/17 06:44:49;;;;;;;0.50;0.50;;;;;;;;;;6243949;28;20033;-95
2024/01/17 06:47:49;;;;;;;0.60;0.60;;;;;;;;;;6247758;28;20105;-94
2024/01/17 06:50:49;;;;;;;0.63;0.63;;;;;;;;;;6244003;28;20038;-94
2024/01/17 06:53:50;;;;;;;0.60;0.60;;;;;;;;;;6254570;28;20017;-94
2024/01/17 06:56:51;;;;;;;0.90;0.90;;;;;;;;;;6253050;28;20116;-94
2024/01/17 06:59:51;;;;;;;0.50;0.50;;;;;;;;;;6251319;28;20028;-91
2024/01/17 07:02:53;;;;;;;0.50;0.50;;;;;;;;;;6246738;28;20022;-93
2024/01/17 07:05:53;;;;;;;;;;;;;;;;;;6246554;28;20079;-93
2024/01/17 07:08:53;;;;;;;0.57;0.57;;;;;;;;;;6247278;28;19909;-94
2024/01/17 07:11:54;;;;;;;0.50;0.50;;;;;;;;;;6252590;28;20040;-94
2024/01/17 07:14:54;;;;;;;0.50;0.50;;;;;;;;;;6243377;28;20050;-94
2024/01/17 07:17:54;;;;;;;0.50;0.50;;;;;;;;;;6237605;28;20546;-93
2024/01/17 07:20:55;;;;;;;0.50;0.50;;;;;;;;;;6236743;28;20018;-93
2024/01/17 07:23:55;;;;;;;0.50;0.50;;;;;;;;;;6252820;28;20064;-94
2024/01/17 07:26:55;;;;;;;0.50;0.50;;;;;;;;;;6249408;28;20464;-94
2024/01/17 07:29:55;;;;;;;0.50;0.50;;;;;;;;;;6243855;28;20022;-93
2024/01/17 07:32:56;;;;;;;0.40;0.40;;;;;;;;;;6239479;28;20025;-93
2024/01/17 07:35:56;;;;;;;0.40;0.40;;;;;;;;;;6241036;28;20056;-93
2024/01/17 07:38:56;;;;;;;0.40;0.40;;;;;;;;;;6242776;28;20041;-93
2024/01/17 07:41:57;;;;;;;0.30;0.30;;;;;;;;;;6253089;28;20634;-95
2024/01/17 07:44:57;;;;;;;0.30;0.30;;;;;;;;;;6252537;28;20111;-91
2024/01/17 07:47:57;;;;;;;0.30;0.30;;;;;;;;;;6233117;28;20025;-93
2024/01/17 07:50:57;;;;;;;0.30;0.30;;;;;;;;;;6227921;28;20471;-93
2024/01/17 07:53:58;;;;;;;0.30;0.30;;;;;;;;;;6246376;28;20029;-93
2024/01/17 07:56:59;;;;;;;0.30;0.30;;;;;;;;;;6249927;28;20455;-93
2024/01/17 07:59:59;;;;;;;0.30;0.30;;;;;;;;;;6238616;28;20021;-93
2024/01/17 08:03:00;;;;;;;0.30;0.30;;;;;;;;;;6246424;28;20037;-93
2024/01/17 08:06:00;;;;;;;0.20;0.20;;;;;;;;;;6243350;28;20017;-94
2024/01/17 08:09:02;;;;;;;0.30;0.30;;;;;;;;;;6246598;28;20025;-95
2024/01/17 08:12:02;;;;;;;0.30;0.30;;;;;;;;;;6245235;28;20025;-83
2024/01/17 08:15:02;;;;;;;0.20;0.20;;;;;;;;;;6244001;28;20052;-83
2024/01/17 08:18:03;;;;;;;0.20;0.20;;;;;;;;;;6244455;28;20483;-84
2024/01/17 08:21:04;;;;;;;0.30;0.30;;;;;;;;;;6247862;28;20053;-94
2024/01/17 08:24:05;;;;;;;0.27;0.27;;;;;;;;;;6249179;28;20026;-93
2024/01/17 08:27:06;;;;;;;0.20;0.20;;;;;;;;;;6247294;28;20029;-93
2024/01/17 08:30:09;;;;;;;0.20;0.20;;;;;;;;;;6243281;28;20467;-93
2024/01/17 08:33:09;;;;;;;0.20;0.20;;;;;;;;;;6246101;28;20026;-93
2024/01/17 08:36:09;;;;;;;0.20;0.20;;;;;;;;;;6239105;28;20018;-93
2024/01/17 08:39:10;;;;;;;0.20;0.20;;;;;;;;;;6257820;28;20036;-93
2024/01/17 08:42:11;;;;;;;0.30;0.30;;;;;;;;;;6243266;28;20060;-93
2024/01/17 08:45:12;;;;;;;0.20;0.20;;;;;;;;;;6264332;28;20023;-93
2024/01/17 08:48:12;;;;;;;0.20;0.20;;;;;;;;;;6257490;28;20021;-93
2024/01/17 08:51:12;;;;;;;0.20;0.20;;;;;;;;;;6289861;28;20034;-92
2024/01/17 08:54:12;;;;;;;0.30;0.30;;;;;;;;;;6277970;28;20021;-93
2024/01/17 08:57:13;;;;;;;0.30;0.30;;;;;;;;;;6270087;28;20033;-93
2024/01/17 09:00:14;;;;;;;0.20;0.20;;;;;;;;;;6264700;28;20049;-93
2024/01/17 09:03:14;;;;;;;0.20;0.20;;;;;;;;;;6265663;28;20029;-92
2024/01/17 09:06:15;;;;;;;0.20;0.20;;;;;;;;;;6261137;28;20041;-92
2024/01/17 09:09:15;;;;;;;0.30;0.30;;;;;;;;;;6275401;28;20014;-92
2024/01/17 09:12:17;;;;;;;0.20;0.20;;;;;;;;;;6266223;28;20025;-93
2024/01/17 09:15:17;;;;;;;;;;;;;;;;;;6277920;28;20044;-93
2024/01/17 09:18:18;;;;;;;0.20;0.20;;;;;;;;;;6277672;28;19897;-93
2024/01/17 09:21:18;;;;;;;0.20;0.20;;;;;;;;;;6279691;28;20322;-93
2024/01/17 09:24:20;;;;;;;0.20;0.20;;;;;;;;;;6266871;28;20022;-93
2024/01/17 09:27:20;;;;;;;0.20;0.20;;;;;;;;;;6244974;28;20030;-93
2024/01/17 09:30:20;;;;;;;0.20;0.20;;;;;;;;;;6244442;28;20061;-93
2024/01/17 09:33:21;;;;;;;0.20;0.20;;;;;;;;;;6243733;28;20070;-93
2024/01/17 09:36:21;;;;;;;0.20;0.20;;;;;;;;;;6234675;28;20014;-93
2024/01/17 09:39:22;;;;;;;0.20;0.20;;;;;;;;;;6242458;28;20456;-94
2024/01/17 09:42:22;;;;;;;0.20;0.20;;;;;;;;;;6240245;28;20021;-93
2024/01/17 09:45:23;;;;;;;0.20;0.20;;;;;;;;;;6241117;28;20021;-93
2024/01/17 09:48:25;;;;;;;0.30;0.30;;;;;;;;;;6244095;28;20032;-95
2024/01/17 09:51:25;;;;;;;0.20;0.20;;;;;;;;;;6245791;28;20021;-94
2024/01/17 09:54:26;;;;;;;0.20;0.20;;;;;;;;;;6242241;28;20072;-95
2024/01/17 09:57:29;;;;;;;0.20;0.20;;;;;;;;;;6236313;28;20017;-95
2024/01/17 10:00:29;;;;;;;0.28;0.28;;;;;;;;;;6235243;28;20311;-94
2024/01/17 10:03:30;;;;;;;0.20;0.20;;;;;;;;;;6230983;28;20440;-94
2024/01/17 10:06:31;;;;;;;0.20;0.20;;;;;;;;;;6239617;28;20034;-95
2024/01/17 10:09:31;;;;;;;0.20;0.20;;;;;;;;;;6233600;28;20032;-94
2024/01/17 10:12:31;;;;;;;0.20;0.20;;;;;;;;;;6237668;28;20029;-94
2024/01/17 10:15:32;;;;;;;0.30;0.30;;;;;;;;;;6239777;28;20064;-94
2024/01/17 10:18:32;;;;;;;0.20;0.20;;;;;;;;;;6239695;28;20013;-94
2024/01/17 10:21:33;;;;;;;0.20;0.20;;;;;;;;;;6247432;28;20047;-95
2024/01/17 10:24:35;;;;;;;0.20;0.20;;;;;;;;;;6241656;28;20167;-95
2024/01/17 10:27:35;;;;;;;0.20;0.20;;;;;;;;;;6247781;28;20029;-95
2024/01/17 10:30:41;;;;;;;0.20;0.20;;;;;;;;;;6245532;28;20391;-82
2024/01/17 10:33:42;;;;;;;0.20;0.20;;;;;;;;;;6237477;28;20016;-82
2024/01/17 10:36:44;;;;;;;0.20;0.20;;;;;;;;;;6231470;28;20025;-81
2024/01/17 10:39:44;;;;;;;0.20;0.20;;;;;;;;;;6229929;28;20022;-82
2024/01/17 10:42:44;;;;;;;0.20;0.20;;;;;;;;;;6243855;28;20022;-96
2024/01/17 10:45:45;;;;;;;0.20;0.20;;;;;;;;;;6242269;28;20068;-96
2024/01/17 10:48:45;;;;;;;0.20;0.20;;;;;;;;;;6241935;28;20108;-96
2024/01/17 10:52:02;;;;;;;0.20;0.20;;;;;;;;;;6240171;28;20037;-96
2024/01/17 10:55:04;;;;;;;0.20;0.20;;;;;;;;;;6238574;28;20053;-96
2024/01/17 10:58:09;;;;;;;0.20;0.20;;;;;;;;;;6245100;28;20012;-96
2024/01/17 11:01:14;;;;;;;0.30;0.30;;;;;;;;;;6252149;28;20212;-96
2024/01/17 11:04:16;;;;;;;0.20;0.20;;;;;;;;;;6252190;28;20048;-96
2024/01/17 11:07:17;;;;;;;0.20;0.20;;;;;;;;;;6258881;28;20045;-95
2024/01/17 11:10:17;;;;;;;0.20;0.20;;;;;;;;;;6254696;28;20117;-96
2024/01/17 11:13:17;;;;;;;0.30;0.30;;;;;;;;;;6250405;28;20049;-96
2024/01/17 11:16:18;;;;;;;0.30;0.30;;;;;;;;;;6248807;28;20033;-96
2024/01/17 11:19:19;;;;;;;0.20;0.20;;;;;;;;;;6254092;28;20028;-96
2024/01/17 11:22:20;;;;;;;0.20;0.20;;;;;;;;;;6253557;28;20032;-96
2024/01/17 11:25:20;;;;;;;0.30;0.30;;;;;;;;;;6262912;28;20034;-96
2024/01/17 11:28:27;;;;;;;0.20;0.20;;;;;;;;;;6269201;28;20002;-95
2024/01/17 11:31:35;;;;;;;0.20;0.20;;;;;;;;;;6277286;28;20022;-96
2024/01/17 11:34:35;;;;;;;0.20;0.20;;;;;;;;;;6279767;28;20008;-95
2024/01/17 11:37:39;;;;;;;0.20;0.20;;;;;;;;;;6272145;28;19998;-95
2024/01/17 11:40:40;;;;;;;0.20;0.20;;;;;;;;;;6280513;28;20014;-95
2024/01/17 11:43:42;;;;;;;0.20;0.20;;;;;;;;;;6281019;28;20111;-94
2024/01/17 11:46:47;;;;;;;0.20;0.20;;;;;;;;;;6280590;22;20049;-78
2024/01/17 11:49:47;;;;;;;0.20;0.20;;;;;;;;;;6251831;28;20025;-78
2024/01/17 11:52:49;;;;;;;0.20;0.20;;;;;;;;;;6254897;28;20497;-78
2024/01/17 11:55:50;;;;;;;0.20;0.20;;;;;;;;;;6242045;28;20112;-78
2024/01/17 11:58:51;;;;;;;0.20;0.20;;;;;;;;;;6246060;28;20028;-78
2024/01/17 12:01:53;;;;;;;0.20;0.20;;;;;;;;;;6258219;28;20025;-77
2024/01/17 12:04:57;;;;;;;0.20;0.20;;;;;;;;;;6243393;28;20067;-84
2024/01/17 12:07:57;;;;;;;0.28;0.28;;;;;;;;;;6258558;28;20519;-84
2024/01/17 12:10:58;;;;;;;0.20;0.20;;;;;;;;;;6240271;28;20057;-84
2024/01/17 12:13:58;;;;;;;0.20;0.20;;;;;;;;;;6247122;28;20053;-83
2024/01/17 12:16:58;;;;;;;0.20;0.20;;;;;;;;;;6242438;28;20403;-82
2024/01/17 12:19:58;;;;;;;0.20;0.20;;;;;;;;;;6237372;28;20507;-82
2024/01/17 12:22:59;;;;;;;0.20;0.20;;;;;;;;;;6233889;28;20029;-83
2024/01/17 12:26:01;;;;;;;0.20;0.20;;;;;;;;;;6243189;28;20168;-83
2024/01/17 12:29:05;;;;;;;0.20;0.20;;;;;;;;;;6228731;28;20545;-83
2024/01/17 12:32:05;;;;;;;0.20;0.20;;;;;;;;;;6229456;28;20026;-83
2024/01/17 12:35:06;;;;;;;0.20;0.20;;;;;;;;;;6244861;28;20069;-83
2024/01/17 12:38:06;;;;;;;0.20;0.20;;;;;;;;;;6236298;28;20471;-82
2024/01/17 12:41:07;;;;;;;0.20;0.20;;;;;;;;;;6242267;28;20584;-83
2024/01/17 12:44:08;;;;;;;0.20;0.20;;;;;;;;;;6244993;28;20115;-83
2024/01/17 12:47:08;;;;;;;0.20;0.20;;;;;;;;;;6244827;28;20187;-82
2024/01/17 12:50:12;;;;;;;0.20;0.20;;;;;;;;;;6243430;28;20105;-82
2024/01/17 12:53:13;;;;;;;0.20;0.20;;;;;;;;;;6231847;28;20029;-82
2024/01/17 12:56:14;;;;;;;0.20;0.20;;;;;;;;;;6225574;28;20021;-82
2024/01/17 12:59:17;;;;;;;0.20;0.20;;;;;;;;;;6241263;28;20364;-82
2024/01/17 13:02:18;;;;;;;0.20;0.20;;;;;;;;;;6241285;28;20519;-82
2024/01/17 13:05:22;;;;;;;0.20;0.20;;;;;;;;;;6242012;28;20037;-83
2024/01/17 13:08:23;;;;;;;0.20;0.20;;;;;;;;;;6242480;28;20045;-83
2024/01/17 13:11:24;;;;;;;0.20;0.20;;;;;;;;;;6236804;28;20010;-84
2024/01/17 13:14:25;;;;;;;0.20;0.20;;;;;;;;;;6240148;28;20025;-84
2024/01/17 13:17:25;;;;;;;0.20;0.20;;;;;;;;;;6246488;28;20068;-80
2024/01/17 13:20:28;;;;;;;0.20;0.20;;;;;;;;;;6245027;28;20470;-80
2024/01/17 13:23:28;;;;;;;0.20;0.20;;;;;;;;;;6249162;28;20013;-80
2024/01/17 13:26:30;;;;;;;0.20;0.20;;;;;;;;;;6229992;28;20028;-80
2024/01/17 13:29:30;;;;;;;0.20;0.20;;;;;;;;;;6246224;28;20028;-80
2024/01/17 13:32:31;;;;;;;0.20;0.20;;;;;;;;;;6237079;28;20108;-79
2024/01/17 13:35:33;;;;;;;0.20;0.20;;;;;;;;;;6252820;28;20021;-79
2024/01/17 13:38:35;;;;;;;0.20;0.20;;;;;;;;;;6237351;28;20028;-79
2024/01/17 13:41:36;;;;;;;0.20;0.20;;;;;;;;;;6241728;28;20063;-79
2024/01/17 13:44:36;;;;;;;0.20;0.20;;;;;;;;;;6241534;28;20025;-79
2024/01/17 13:47:40;;;;;;;0.20;0.20;;;;;;;;;;6230344;28;20052;-79
2024/01/17 13:50:40;;;;;;;0.20;0.20;;;;;;;;;;6240821;28;20383;-79
2024/01/17 13:53:41;;;;;;;0.20;0.20;;;;;;;;;;6238058;28;20026;-79
2024/01/17 13:56:42;;;;;;;0.20;0.20;;;;;;;;;;6236021;28;20026;-80
2024/01/17 13:59:43;;;;;;;0.20;0.20;;;;;;;;;;6246463;28;20029;-80
2024/01/17 14:02:43;;;;;;;0.20;0.20;;;;;;;;;;6238593;28;20037;-80
2024/01/17 14:05:43;;;;;;;0.20;0.20;;;;;;;;;;6235660;28;20022;-80
2024/01/17 14:08:44;;;;;;;0.20;0.20;;;;;;;;;;6242001;28;20027;-80
2024/01/17 14:11:45;;;;;;;0.20;0.20;;;;;;;;;;6239037;28;20542;-80
2024/01/17 14:14:46;;;;;;;0.20;0.20;;;;;;;;;;6241548;28;20021;-80
2024/01/17 14:17:47;;;;;;;0.20;0.20;;;;;;;;;;6240620;28;20107;-80
2024/01/17 14:20:47;;;;;;;0.20;0.20;;;;;;;;;;6227048;28;20026;-80
2024/01/17 14:23:48;;;;;;;0.20;0.20;;;;;;;;;;6241146;28;20025;-80
2024/01/17 14:26:48;;;;;;;0.20;0.20;;;;;;;;;;6242362;28;20467;-79
2024/01/17 14:29:48;;;;;;;0.20;0.20;;;;;;;;;;6245127;28;20033;-79
2024/01/17 14:32:48;;;;;;;0.20;0.20;;;;;;;;;;6253301;28;20032;-79
2024/01/17 14:35:49;;;;;;;0.20;0.20;;;;;;;;;;6242828;28;20017;-78
2024/01/17 14:38:49;;;;;;;0.20;0.20;;;;;;;;;;6233183;28;20092;-78
2024/01/17 14:41:50;;;;;;;0.20;0.20;;;;;;;;;;6240270;28;20108;-79
2024/01/17 14:44:51;;;;;;;0.20;0.20;;;;;;;;;;6240919;28;20018;-79
2024/01/17 14:47:51;;;;;;;0.20;0.20;;;;;;;;;;6240957;28;20057;-79
2024/01/17 14:50:52;;;;;;;0.20;0.20;;;;;;;;;;6256011;28;20368;-79
2024/01/17 14:53:52;;;;;;;0.20;0.20;;;;;;;;;;6226246;28;20018;-79
2024/01/17 14:56:53;;;;;;;0.20;0.20;;;;;;;;;;6232036;28;20037;-79
2024/01/17 14:59:54;;;;;;;0.20;0.20;;;;;;;;;;6245229;28;20037;-79
2024/01/17 15:02:55;;;;;;;0.20;0.20;;;;;;;;;;6242206;28;20073;-79
2024/01/17 15:05:55;;;;;;;0.20;0.20;;;;;;;;;;6244109;28;20048;-78
2024/01/17 15:08:56;;;;;;;0.20;0.20;;;;;;;;;;6241426;28;20049;-78
2024/01/17 15:11:58;;;;;;;0.20;0.20;;;;;;;;;;6239104;28;20419;-79
2024/01/17 15:14:59;;;;;;;0.20;0.20;;;;;;;;;;6241782;28;20021;-79
2024/01/17 15:18:00;;;;;;;0.20;0.20;;;;;;;;;;6243680;28;20104;-79
2024/01/17 15:21:00;;;;;;;0.20;0.20;;;;;;;;;;6238513;28;20039;-78
2024/01/17 15:24:00;;;;;;;0.20;0.20;;;;;;;;;;6229446;28;20512;-79
2024/01/17 15:27:00;;;;;;;0.30;0.30;;;;;;;;;;6259888;28;20431;-79
2024/01/17 15:30:01;;;;;;;0.20;0.20;;;;;;;;;;6246455;28;20017;-79
2024/01/17 15:33:01;;;;;;;0.20;0.20;;;;;;;;;;6244973;28;20029;-78
2024/01/17 15:36:02;;;;;;;0.20;0.20;;;;;;;;;;6240180;28;20032;-87
2024/01/17 15:39:06;;;;;;;0.30;0.30;;;;;;;;;;6241690;28;20375;-87
2024/01/17 15:42:06;;;;;;;0.30;0.30;;;;;;;;;;6237843;28;20026;-87
2024/01/17 15:45:07;;;;;;;0.20;0.20;;;;;;;;;;6249846;28;20091;-80
2024/01/17 15:48:07;;;;;;;0.20;0.20;;;;;;;;;;6242283;28;20049;-80
2024/01/17 15:51:07;;;;;;;0.20;0.20;;;;;;;;;;6245510;28;20030;-80
2024/01/17 15:54:08;;;;;;;0.20;0.20;;;;;;;;;;6241820;28;20037;-80
2024/01/17 15:57:08;;;;;;;0.30;0.30;;;;;;;;;;6239709;28;20079;-87
2024/01/17 16:00:09;;;;;;;0.20;0.20;;;;;;;;;;6233922;28;20061;-88
2024/01/17 16:03:09;;;;;;;0.20;0.20;;;;;;;;;;6246106;28;20132;-89
2024/01/17 16:06:10;;;;;;;0.30;0.30;;;;;;;;;;6245730;28;20041;-88
2024/01/17 16:09:11;;;;;;;0.27;0.27;;;;;;;;;;6254822;28;20032;-88
2024/01/17 16:12:11;;;;;;;0.20;0.20;;;;;;;;;;6241249;28;20033;-88
2024/01/17 16:15:14;;;;;;;0.20;0.20;;;;;;;;;;6238487;28;20025;-87
2024/01/17 16:18:15;;;;;;;0.20;0.20;;;;;;;;;;6245033;28;20163;-87
2024/01/17 16:21:15;;;;;;;0.20;0.20;;;;;;;;;;6245708;28;20037;-88
2024/01/17 16:24:15;;;;;;;0.20;0.20;;;;;;;;;;6245569;28;20037;-88
2024/01/17 16:27:16;;;;;;;0.30;0.30;;;;;;;;;;6231119;28;20037;-88
2024/01/17 16:30:16;;;;;;;0.20;0.20;;;;;;;;;;6251652;28;20463;-87
2024/01/17 16:33:16;;;;;;;0.30;0.30;;;;;;;;;;6242235;28;20028;-86
2024/01/17 16:36:16;;;;;;;0.30;0.30;;;;;;;;;;6241481;28;20121;-86
2024/01/17 16:39:17;;;;;;;0.20;0.20;;;;;;;;;;6237854;28;20051;-86
2024/01/17 16:42:18;;;;;;;0.20;0.20;;;;;;;;;;6244043;28;20095;-86
2024/01/17 16:45:18;;;;;;;0.20;0.20;;;;;;;;;;6241321;28;20060;-82
2024/01/17 16:48:18;;;;;;;0.30;0.30;;;;;;;;;;6245115;28;20558;-83
2024/01/17 16:51:18;;;;;;;0.30;0.30;;;;;;;;;;6242950;28;20044;-82
2024/01/17 16:54:19;;;;;;;0.20;0.20;;;;;;;;;;6239659;28;20013;-82
2024/01/17 16:57:19;;;;;;;0.30;0.30;;;;;;;;;;6252462;28;20025;-82
2024/01/17 17:00:19;;;;;;;0.27;0.27;;;;;;;;;;6234945;28;20044;-82
2024/01/17 17:03:20;;;;;;;0.30;0.30;;;;;;;;;;6243031;28;20074;-82
2024/01/17 17:06:20;;;;;;;0.37;0.37;;;;;;;;;;6233442;28;20005;-84
2024/01/17 17:09:21;;;;;;;0.30;0.30;;;;;;;;;;6252330;28;20162;-84
2024/01/17 17:12:23;;;;;;;0.20;0.20;;;;;;;;;;6235620;28;20041;-84
2024/01/17 17:15:23;;;;;;;0.30;0.30;;;;;;;;;;6210288;28;20017;-84
2024/01/17 17:18:24;;;;;;;0.30;0.30;;;;;;;;;;6239314;28;20032;-84
2024/01/17 17:21:25;;;;;;;0.27;0.27;;;;;;;;;;6242467;28;20028;-84
2024/01/17 17:24:25;;;;;;;0.20;0.20;;;;;;;;;;6242374;28;20024;-84
2024/01/17 17:27:27;;;;;;;0.27;0.27;;;;;;;;;;6238453;28;20096;-83
2024/01/17 17:30:30;;;;;;;0.20;0.20;;;;;;;;;;6241890;28;20018;-83
2024/01/17 17:33:30;;;;;;;0.20;0.20;;;;;;;;;;6242470;28;20024;-83
2024/01/17 17:36:30;;;;;;;0.20;0.20;;;;;;;;;;6240608;28;20249;-83
2024/01/17 17:39:31;;;;;;;0.30;0.30;;;;;;;;;;6235553;28;20105;-83
2024/01/17 17:42:31;;;;;;;0.20;0.20;;;;;;;;;;6242705;28;20028;-83
2024/01/17 17:45:32;;;;;;;0.30;0.30;;;;;;;;;;6228694;28;20026;-82
2024/01/17 17:48:32;;;;;;;0.23;0.23;;;;;;;;;;6242471;28;20107;-83
2024/01/17 17:51:32;;;;;;;0.30;0.30;;;;;;;;;;6241516;28;20033;-83
2024/01/17 17:54:33;;;;;;;0.30;0.30;;;;;;;;;;6242075;28;20397;-82
2024/01/17 17:57:33;;;;;;;0.30;0.30;;;;;;;;;;6239037;28;20403;-83
2024/01/17 18:00:33;;;;;;;0.30;0.30;;;;;;;;;;6240080;28;20399;-83
2024/01/17 18:03:34;;;;;;;0.30;0.30;;;;;;;;;;6233113;28;20037;-83
2024/01/17 18:06:34;;;;;;;0.20;0.20;;;;;;;;;;6239726;28;20029;-82